sensor_id;sensor_type;location;lat;lon;timestamp;P1;durP1;ratioP1;P2;durP2;ratioP2
12141;SDS011;6134;59.284;18.022;2024-01-15T00:00:39;1.63;;;0.95;;
12141;SDS011;6134;59.284;18.022;2024-01-15T00:03:08;1.48;;;0.73;;
12141;SDS011;6134;59.284;18.022;2024-01-15T00:05:37;0.95;;;0.70;;
12141;SDS011;6134;59.284;18.022;2024-01-15T00:08:06;3.35;;;0.68;;
12141;SDS011;6134;59.284;18.022;2024-01-15T00:10:34;2.88;;;0.70;;
12141;SDS011;6134;59.284;18.022;2024-01-15T00:13:04;1.55;;;0.60;;
12141;SDS011;6134;59.284;18.022;2024-01-15T00:15:33;2.78;;;0.60;;
12141;SDS011;6134;59.284;18.022;2024-01-15T00:18:02;0.75;;;0.60;;
12141;SDS011;6134;59.284;18.022;2024-01-15T00:20:31;1.05;;;0.70;;
12141;SDS011;6134;59.284;18.022;2024-01-15T00:23:00;0.60;;;0.60;;
12141;SDS011;6134;59.284;18.022;2024-01-15T00:25:29;2.35;;;0.65;;
12141;SDS011;6134;59.284;18.022;2024-01-15T00:27:57;1.08;;;0.60;;
12141;SDS011;6134;59.284;18.022;2024-01-15T00:30:27;3.15;;;0.90;;
12141;SDS011;6134;59.284;18.022;2024-01-15T00:32:56;0.50;;;0.50;;
12141;SDS011;6134;59.284;18.022;2024-01-15T00:35:26;0.70;;;0.50;;
12141;SDS011;6134;59.284;18.022;2024-01-15T00:37:56;1.10;;;0.60;;
12141;SDS011;6134;59.284;18.022;2024-01-15T00:40:26;0.82;;;0.60;;
12141;SDS011;6134;59.284;18.022;2024-01-15T00:42:55;0.43;;;0.43;;
12141;SDS011;6134;59.284;18.022;2024-01-15T00:45:23;0.60;;;0.50;;
12141;SDS011;6134;59.284;18.022;2024-01-15T00:47:54;0.80;;;0.50;;
12141;SDS011;6134;59.284;18.022;2024-01-15T00:50:26;1.95;;;0.73;;
12141;SDS011;6134;59.284;18.022;2024-01-15T00:52:55;1.85;;;0.43;;
12141;SDS011;6134;59.284;18.022;2024-01-15T00:55:24;1.80;;;0.90;;
12141;SDS011;6134;59.284;18.022;2024-01-15T00:57:52;0.75;;;0.50;;
12141;SDS011;6134;59.284;18.022;2024-01-15T01:00:23;1.02;;;0.55;;
12141;SDS011;6134;59.284;18.022;2024-01-15T01:02:52;3.38;;;0.77;;
12141;SDS011;6134;59.284;18.022;2024-01-15T01:05:22;1.73;;;0.75;;
12141;SDS011;6134;59.284;18.022;2024-01-15T01:07:51;0.57;;;0.57;;
12141;SDS011;6134;59.284;18.022;2024-01-15T01:10:19;1.55;;;0.65;;
12141;SDS011;6134;59.284;18.022;2024-01-15T01:12:48;0.63;;;0.60;;
12141;SDS011;6134;59.284;18.022;2024-01-15T01:15:17;0.50;;;0.50;;
12141;SDS011;6134;59.284;18.022;2024-01-15T01:17:46;0.40;;;0.40;;
12141;SDS011;6134;59.284;18.022;2024-01-15T01:20:15;0.57;;;0.57;;
12141;SDS011;6134;59.284;18.022;2024-01-15T01:22:46;2.05;;;0.80;;
12141;SDS011;6134;59.284;18.022;2024-01-15T01:25:15;1.15;;;0.60;;
12141;SDS011;6134;59.284;18.022;2024-01-15T01:27:44;1.75;;;0.68;;
12141;SDS011;6134;59.284;18.022;2024-01-15T01:30:13;0.60;;;0.60;;
12141;SDS011;6134;59.284;18.022;2024-01-15T01:32:42;2.47;;;0.60;;
12141;SDS011;6134;59.284;18.022;2024-01-15T01:35:10;2.22;;;0.95;;
12141;SDS011;6134;59.284;18.022;2024-01-15T01:37:40;0.82;;;0.60;;
12141;SDS011;6134;59.284;18.022;2024-01-15T01:40:10;1.27;;;0.60;;
12141;SDS011;6134;59.284;18.022;2024-01-15T01:42:40;0.85;;;0.75;;
12141;SDS011;6134;59.284;18.022;2024-01-15T01:45:09;0.73;;;0.70;;
12141;SDS011;6134;59.284;18.022;2024-01-15T01:47:38;0.57;;;0.57;;
12141;SDS011;6134;59.284;18.022;2024-01-15T01:50:07;2.15;;;1.08;;
12141;SDS011;6134;59.284;18.022;2024-01-15T01:52:36;0.80;;;0.60;;
12141;SDS011;6134;59.284;18.022;2024-01-15T01:55:06;1.27;;;0.75;;
12141;SDS011;6134;59.284;18.022;2024-01-15T01:57:36;1.55;;;0.85;;
12141;SDS011;6134;59.284;18.022;2024-01-15T02:00:06;0.43;;;0.43;;
12141;SDS011;6134;59.284;18.022;2024-01-15T02:02:37;2.10;;;0.65;;
12141;SDS011;6134;59.284;18.022;2024-01-15T02:05:06;2.00;;;0.73;;
12141;SDS011;6134;59.284;18.022;2024-01-15T02:07:36;0.70;;;0.50;;
12141;SDS011;6134;59.284;18.022;2024-01-15T02:10:05;3.88;;;0.80;;
12141;SDS011;6134;59.284;18.022;2024-01-15T02:12:34;1.52;;;0.82;;
12141;SDS011;6134;59.284;18.022;2024-01-15T02:15:04;3.15;;;0.70;;
12141;SDS011;6134;59.284;18.022;2024-01-15T02:17:34;3.83;;;0.80;;
12141;SDS011;6134;59.284;18.022;2024-01-15T02:20:04;1.75;;;0.68;;
12141;SDS011;6134;59.284;18.022;2024-01-15T02:22:33;0.63;;;0.63;;
12141;SDS011;6134;59.284;18.022;2024-01-15T02:25:03;1.45;;;0.50;;
12141;SDS011;6134;59.284;18.022;2024-01-15T02:27:32;0.82;;;0.40;;
12141;SDS011;6134;59.284;18.022;2024-01-15T02:30:01;1.30;;;0.55;;
12141;SDS011;6134;59.284;18.022;2024-01-15T02:32:30;2.60;;;0.63;;
12141;SDS011;6134;59.284;18.022;2024-01-15T02:34:59;0.65;;;0.65;;
12141;SDS011;6134;59.284;18.022;2024-01-15T02:37:29;2.38;;;0.88;;
12141;SDS011;6134;59.284;18.022;2024-01-15T02:39:58;1.35;;;0.75;;
12141;SDS011;6134;59.284;18.022;2024-01-15T02:42:28;0.93;;;0.60;;
12141;SDS011;6134;59.284;18.022;2024-01-15T02:44:57;0.50;;;0.50;;
12141;SDS011;6134;59.284;18.022;2024-01-15T02:47:26;1.00;;;0.57;;
12141;SDS011;6134;59.284;18.022;2024-01-15T02:49:57;0.60;;;0.60;;
12141;SDS011;6134;59.284;18.022;2024-01-15T02:52:26;1.25;;;0.60;;
12141;SDS011;6134;59.284;18.022;2024-01-15T02:54:55;0.80;;;0.65;;
12141;SDS011;6134;59.284;18.022;2024-01-15T02:57:23;0.77;;;0.60;;
12141;SDS011;6134;59.284;18.022;2024-01-15T02:59:53;0.73;;;0.50;;
12141;SDS011;6134;59.284;18.022;2024-01-15T03:02:22;0.52;;;0.52;;
12141;SDS011;6134;59.284;18.022;2024-01-15T03:04:51;1.65;;;0.70;;
12141;SDS011;6134;59.284;18.022;2024-01-15T03:07:20;1.77;;;0.65;;
12141;SDS011;6134;59.284;18.022;2024-01-15T03:09:49;2.15;;;0.70;;
12141;SDS011;6134;59.284;18.022;2024-01-15T03:12:18;0.50;;;0.50;;
12141;SDS011;6134;59.284;18.022;2024-01-15T03:14:46;1.63;;;0.75;;
12141;SDS011;6134;59.284;18.022;2024-01-15T03:17:17;1.77;;;1.10;;
12141;SDS011;6134;59.284;18.022;2024-01-15T03:19:46;0.60;;;0.45;;
12141;SDS011;6134;59.284;18.022;2024-01-15T03:22:16;1.75;;;0.90;;
12141;SDS011;6134;59.284;18.022;2024-01-15T03:24:45;0.50;;;0.50;;
12141;SDS011;6134;59.284;18.022;2024-01-15T03:27:14;2.15;;;0.60;;
12141;SDS011;6134;59.284;18.022;2024-01-15T03:29:43;2.20;;;0.80;;
12141;SDS011;6134;59.284;18.022;2024-01-15T03:32:12;1.92;;;0.68;;
12141;SDS011;6134;59.284;18.022;2024-01-15T03:34:43;2.17;;;0.60;;
12141;SDS011;6134;59.284;18.022;2024-01-15T03:37:13;1.95;;;0.70;;
12141;SDS011;6134;59.284;18.022;2024-01-15T03:39:42;1.63;;;0.70;;
12141;SDS011;6134;59.284;18.022;2024-01-15T03:42:11;0.63;;;0.63;;
12141;SDS011;6134;59.284;18.022;2024-01-15T03:44:41;1.92;;;0.60;;
12141;SDS011;6134;59.284;18.022;2024-01-15T03:47:10;0.95;;;0.50;;
12141;SDS011;6134;59.284;18.022;2024-01-15T03:49:39;0.70;;;0.70;;
12141;SDS011;6134;59.284;18.022;2024-01-15T03:52:09;4.28;;;0.70;;
12141;SDS011;6134;59.284;18.022;2024-01-15T03:54:39;0.88;;;0.80;;
12141;SDS011;6134;59.284;18.022;2024-01-15T03:57:08;2.72;;;0.73;;
12141;SDS011;6134;59.284;18.022;2024-01-15T03:59:36;4.05;;;0.68;;
12141;SDS011;6134;59.284;18.022;2024-01-15T04:02:05;2.55;;;0.82;;
12141;SDS011;6134;59.284;18.022;2024-01-15T04:04:34;1.23;;;0.65;;
12141;SDS011;6134;59.284;18.022;2024-01-15T04:07:03;1.02;;;0.77;;
12141;SDS011;6134;59.284;18.022;2024-01-15T04:09:33;1.83;;;0.70;;
12141;SDS011;6134;59.284;18.022;2024-01-15T04:12:02;0.50;;;0.50;;
12141;SDS011;6134;59.284;18.022;2024-01-15T04:14:31;1.05;;;0.63;;
12141;SDS011;6134;59.284;18.022;2024-01-15T04:17:00;0.70;;;0.60;;
12141;SDS011;6134;59.284;18.022;2024-01-15T04:19:29;2.45;;;0.80;;
12141;SDS011;6134;59.284;18.022;2024-01-15T04:21:58;1.05;;;0.75;;
12141;SDS011;6134;59.284;18.022;2024-01-15T04:24:27;2.03;;;1.00;;
12141;SDS011;6134;59.284;18.022;2024-01-15T04:26:57;0.80;;;0.75;;
12141;SDS011;6134;59.284;18.022;2024-01-15T04:29:25;2.30;;;0.77;;
12141;SDS011;6134;59.284;18.022;2024-01-15T04:31:54;1.65;;;0.80;;
12141;SDS011;6134;59.284;18.022;2024-01-15T04:34:23;1.75;;;0.70;;
12141;SDS011;6134;59.284;18.022;2024-01-15T04:36:52;0.75;;;0.60;;
12141;SDS011;6134;59.284;18.022;2024-01-15T04:39:21;1.67;;;0.82;;
12141;SDS011;6134;59.284;18.022;2024-01-15T04:41:51;1.33;;;0.80;;
12141;SDS011;6134;59.284;18.022;2024-01-15T04:44:22;1.00;;;0.77;;
12141;SDS011;6134;59.284;18.022;2024-01-15T04:46:51;0.95;;;0.88;;
12141;SDS011;6134;59.284;18.022;2024-01-15T04:49:21;1.95;;;0.80;;
12141;SDS011;6134;59.284;18.022;2024-01-15T04:51:52;1.83;;;0.90;;
12141;SDS011;6134;59.284;18.022;2024-01-15T04:54:21;1.10;;;0.95;;
12141;SDS011;6134;59.284;18.022;2024-01-15T04:56:51;0.80;;;0.80;;
12141;SDS011;6134;59.284;18.022;2024-01-15T04:59:19;1.40;;;0.82;;
12141;SDS011;6134;59.284;18.022;2024-01-15T05:01:49;2.30;;;0.95;;
12141;SDS011;6134;59.284;18.022;2024-01-15T05:04:19;1.67;;;0.98;;
12141;SDS011;6134;59.284;18.022;2024-01-15T05:06:48;1.17;;;0.82;;
12141;SDS011;6134;59.284;18.022;2024-01-15T05:09:17;1.60;;;0.98;;
12141;SDS011;6134;59.284;18.022;2024-01-15T05:11:45;1.38;;;1.20;;
12141;SDS011;6134;59.284;18.022;2024-01-15T05:14:14;1.27;;;0.85;;
12141;SDS011;6134;59.284;18.022;2024-01-15T05:16:46;1.38;;;0.95;;
12141;SDS011;6134;59.284;18.022;2024-01-15T05:19:17;1.90;;;1.08;;
12141;SDS011;6134;59.284;18.022;2024-01-15T05:21:46;2.15;;;1.00;;
12141;SDS011;6134;59.284;18.022;2024-01-15T05:24:15;1.35;;;1.00;;
12141;SDS011;6134;59.284;18.022;2024-01-15T05:26:44;1.15;;;1.13;;
12141;SDS011;6134;59.284;18.022;2024-01-15T05:29:13;1.05;;;0.95;;
12141;SDS011;6134;59.284;18.022;2024-01-15T05:31:42;2.45;;;0.90;;
12141;SDS011;6134;59.284;18.022;2024-01-15T05:34:11;1.58;;;1.20;;
12141;SDS011;6134;59.284;18.022;2024-01-15T05:36:41;1.05;;;1.02;;
12141;SDS011;6134;59.284;18.022;2024-01-15T05:39:10;2.50;;;1.20;;
12141;SDS011;6134;59.284;18.022;2024-01-15T05:41:40;1.55;;;1.20;;
12141;SDS011;6134;59.284;18.022;2024-01-15T05:44:09;2.00;;;1.67;;
12141;SDS011;6134;59.284;18.022;2024-01-15T05:46:38;3.08;;;1.40;;
12141;SDS011;6134;59.284;18.022;2024-01-15T05:49:07;1.42;;;1.27;;
12141;SDS011;6134;59.284;18.022;2024-01-15T05:51:36;2.88;;;1.10;;
12141;SDS011;6134;59.284;18.022;2024-01-15T05:54:07;1.95;;;1.10;;
12141;SDS011;6134;59.284;18.022;2024-01-15T05:56:36;1.65;;;1.30;;
12141;SDS011;6134;59.284;18.022;2024-01-15T05:59:05;2.30;;;1.40;;
12141;SDS011;6134;59.284;18.022;2024-01-15T06:01:34;1.02;;;0.93;;
12141;SDS011;6134;59.284;18.022;2024-01-15T06:04:03;3.70;;;1.30;;
12141;SDS011;6134;59.284;18.022;2024-01-15T06:06:33;2.47;;;1.40;;
12141;SDS011;6134;59.284;18.022;2024-01-15T06:09:02;1.65;;;1.30;;
12141;SDS011;6134;59.284;18.022;2024-01-15T06:11:34;3.25;;;1.20;;
12141;SDS011;6134;59.284;18.022;2024-01-15T06:14:03;4.63;;;1.60;;
12141;SDS011;6134;59.284;18.022;2024-01-15T06:16:32;2.55;;;1.38;;
12141;SDS011;6134;59.284;18.022;2024-01-15T06:19:00;2.42;;;1.30;;
12141;SDS011;6134;59.284;18.022;2024-01-15T06:21:29;2.47;;;1.23;;
12141;SDS011;6134;59.284;18.022;2024-01-15T06:23:58;1.63;;;1.27;;
12141;SDS011;6134;59.284;18.022;2024-01-15T06:26:27;2.47;;;1.60;;
12141;SDS011;6134;59.284;18.022;2024-01-15T06:28:57;2.13;;;1.67;;
12141;SDS011;6134;59.284;18.022;2024-01-15T06:31:26;1.70;;;1.38;;
12141;SDS011;6134;59.284;18.022;2024-01-15T06:33:55;1.75;;;1.30;;
12141;SDS011;6134;59.284;18.022;2024-01-15T06:36:24;4.03;;;1.75;;
12141;SDS011;6134;59.284;18.022;2024-01-15T06:38:53;4.50;;;2.10;;
12141;SDS011;6134;59.284;18.022;2024-01-15T06:41:23;2.58;;;1.50;;
12141;SDS011;6134;59.284;18.022;2024-01-15T06:43:52;2.28;;;1.35;;
12141;SDS011;6134;59.284;18.022;2024-01-15T06:46:24;2.88;;;1.60;;
12141;SDS011;6134;59.284;18.022;2024-01-15T06:48:53;1.92;;;1.70;;
12141;SDS011;6134;59.284;18.022;2024-01-15T06:51:22;2.92;;;1.80;;
12141;SDS011;6134;59.284;18.022;2024-01-15T06:53:51;5.82;;;2.10;;
12141;SDS011;6134;59.284;18.022;2024-01-15T06:56:20;2.67;;;1.70;;
12141;SDS011;6134;59.284;18.022;2024-01-15T06:58:49;4.22;;;1.90;;
12141;SDS011;6134;59.284;18.022;2024-01-15T07:01:18;6.32;;;2.40;;
12141;SDS011;6134;59.284;18.022;2024-01-15T07:03:49;6.78;;;2.40;;
12141;SDS011;6134;59.284;18.022;2024-01-15T07:06:18;4.18;;;2.00;;
12141;SDS011;6134;59.284;18.022;2024-01-15T07:08:47;4.13;;;1.83;;
12141;SDS011;6134;59.284;18.022;2024-01-15T07:11:16;3.10;;;1.88;;
12141;SDS011;6134;59.284;18.022;2024-01-15T07:13:45;5.80;;;2.10;;
12141;SDS011;6134;59.284;18.022;2024-01-15T07:16:14;1.95;;;1.70;;
12141;SDS011;6134;59.284;18.022;2024-01-15T07:19:04;1.80;;;1.70;;
12141;SDS011;6134;59.284;18.022;2024-01-15T07:21:33;4.50;;;2.00;;
12141;SDS011;6134;59.284;18.022;2024-01-15T07:24:02;3.00;;;1.90;;
12141;SDS011;6134;59.284;18.022;2024-01-15T07:26:30;2.63;;;1.90;;
12141;SDS011;6134;59.284;18.022;2024-01-15T07:28:59;2.33;;;1.70;;
12141;SDS011;6134;59.284;18.022;2024-01-15T07:31:28;1.85;;;1.58;;
12141;SDS011;6134;59.284;18.022;2024-01-15T07:33:57;1.58;;;1.42;;
12141;SDS011;6134;59.284;18.022;2024-01-15T07:36:28;2.40;;;1.50;;
12141;SDS011;6134;59.284;18.022;2024-01-15T07:38:57;2.72;;;1.42;;
12141;SDS011;6134;59.284;18.022;2024-01-15T07:41:26;2.72;;;1.30;;
12141;SDS011;6134;59.284;18.022;2024-01-15T07:43:55;1.70;;;1.33;;
12141;SDS011;6134;59.284;18.022;2024-01-15T07:46:25;3.17;;;1.38;;
12141;SDS011;6134;59.284;18.022;2024-01-15T07:48:54;1.25;;;1.10;;
12141;SDS011;6134;59.284;18.022;2024-01-15T07:51:24;1.95;;;1.02;;
12141;SDS011;6134;59.284;18.022;2024-01-15T07:53:54;0.90;;;0.90;;
12141;SDS011;6134;59.284;18.022;2024-01-15T07:56:25;2.35;;;1.27;;
12141;SDS011;6134;59.284;18.022;2024-01-15T07:58:55;2.13;;;0.88;;
12141;SDS011;6134;59.284;18.022;2024-01-15T08:01:25;1.63;;;1.00;;
12141;SDS011;6134;59.284;18.022;2024-01-15T08:03:54;1.55;;;1.00;;
12141;SDS011;6134;59.284;18.022;2024-01-15T08:06:23;1.40;;;1.20;;
12141;SDS011;6134;59.284;18.022;2024-01-15T08:08:52;1.80;;;1.10;;
12141;SDS011;6134;59.284;18.022;2024-01-15T08:11:22;1.27;;;0.80;;
12141;SDS011;6134;59.284;18.022;2024-01-15T08:13:51;0.63;;;0.60;;
12141;SDS011;6134;59.284;18.022;2024-01-15T08:16:20;1.73;;;0.90;;
12141;SDS011;6134;59.284;18.022;2024-01-15T08:18:50;0.75;;;0.60;;
12141;SDS011;6134;59.284;18.022;2024-01-15T08:21:19;1.13;;;0.90;;
12141;SDS011;6134;59.284;18.022;2024-01-15T08:23:48;5.72;;;1.30;;
12141;SDS011;6134;59.284;18.022;2024-01-15T08:26:17;1.52;;;0.85;;
12141;SDS011;6134;59.284;18.022;2024-01-15T08:28:47;0.93;;;0.80;;
12141;SDS011;6134;59.284;18.022;2024-01-15T08:31:16;0.93;;;0.70;;
12141;SDS011;6134;59.284;18.022;2024-01-15T08:33:45;2.00;;;0.70;;
12141;SDS011;6134;59.284;18.022;2024-01-15T08:36:14;1.88;;;0.80;;
12141;SDS011;6134;59.284;18.022;2024-01-15T08:38:44;2.33;;;0.70;;
12141;SDS011;6134;59.284;18.022;2024-01-15T08:41:14;1.35;;;0.60;;
12141;SDS011;6134;59.284;18.022;2024-01-15T08:43:43;0.65;;;0.60;;
12141;SDS011;6134;59.284;18.022;2024-01-15T08:46:13;0.70;;;0.70;;
12141;SDS011;6134;59.284;18.022;2024-01-15T08:48:42;1.75;;;0.50;;
12141;SDS011;6134;59.284;18.022;2024-01-15T08:51:11;2.67;;;0.55;;
12141;SDS011;6134;59.284;18.022;2024-01-15T08:53:40;3.55;;;0.60;;
12141;SDS011;6134;59.284;18.022;2024-01-15T08:56:09;0.80;;;0.60;;
12141;SDS011;6134;59.284;18.022;2024-01-15T08:58:41;0.60;;;0.60;;
12141;SDS011;6134;59.284;18.022;2024-01-15T09:01:14;1.67;;;0.63;;
12141;SDS011;6134;59.284;18.022;2024-01-15T09:03:43;2.13;;;0.50;;
12141;SDS011;6134;59.284;18.022;2024-01-15T09:06:13;1.13;;;0.50;;
12141;SDS011;6134;59.284;18.022;2024-01-15T09:08:41;0.80;;;0.80;;
12141;SDS011;6134;59.284;18.022;2024-01-15T09:11:10;2.28;;;0.88;;
12141;SDS011;6134;59.284;18.022;2024-01-15T09:13:40;1.05;;;0.70;;
12141;SDS011;6134;59.284;18.022;2024-01-15T09:16:09;2.00;;;0.82;;
12141;SDS011;6134;59.284;18.022;2024-01-15T09:18:39;6.13;;;1.98;;
12141;SDS011;6134;59.284;18.022;2024-01-15T09:21:08;2.30;;;0.70;;
12141;SDS011;6134;59.284;18.022;2024-01-15T09:23:37;0.50;;;0.50;;
12141;SDS011;6134;59.284;18.022;2024-01-15T09:26:07;3.28;;;0.70;;
12141;SDS011;6134;59.284;18.022;2024-01-15T09:28:36;2.75;;;1.08;;
12141;SDS011;6134;59.284;18.022;2024-01-15T09:31:05;1.13;;;0.57;;
12141;SDS011;6134;59.284;18.022;2024-01-15T09:33:34;0.50;;;0.50;;
12141;SDS011;6134;59.284;18.022;2024-01-15T09:36:04;0.98;;;0.75;;
12141;SDS011;6134;59.284;18.022;2024-01-15T09:38:34;1.08;;;0.50;;
12141;SDS011;6134;59.284;18.022;2024-01-15T09:41:03;1.30;;;0.60;;
12141;SDS011;6134;59.284;18.022;2024-01-15T09:43:32;1.85;;;0.80;;
12141;SDS011;6134;59.284;18.022;2024-01-15T09:46:01;1.83;;;0.60;;
12141;SDS011;6134;59.284;18.022;2024-01-15T09:48:31;1.95;;;0.80;;
12141;SDS011;6134;59.284;18.022;2024-01-15T09:51:01;2.65;;;1.23;;
12141;SDS011;6134;59.284;18.022;2024-01-15T09:53:32;1.17;;;1.02;;
12141;SDS011;6134;59.284;18.022;2024-01-15T09:56:01;3.03;;;1.25;;
12141;SDS011;6134;59.284;18.022;2024-01-15T09:58:30;1.15;;;0.55;;
12141;SDS011;6134;59.284;18.022;2024-01-15T10:00:59;0.43;;;0.43;;
12141;SDS011;6134;59.284;18.022;2024-01-15T10:03:34;2.80;;;0.90;;
12141;SDS011;6134;59.284;18.022;2024-01-15T10:06:04;0.70;;;0.60;;
12141;SDS011;6134;59.284;18.022;2024-01-15T10:08:35;4.95;;;1.00;;
12141;SDS011;6134;59.284;18.022;2024-01-15T10:11:06;4.68;;;0.88;;
12141;SDS011;6134;59.284;18.022;2024-01-15T10:13:35;0.60;;;0.60;;
12141;SDS011;6134;59.284;18.022;2024-01-15T10:16:07;2.42;;;0.98;;
12141;SDS011;6134;59.284;18.022;2024-01-15T10:18:37;2.00;;;0.68;;
12141;SDS011;6134;59.284;18.022;2024-01-15T10:21:06;1.90;;;0.77;;
12141;SDS011;6134;59.284;18.022;2024-01-15T10:23:37;0.65;;;0.60;;
12141;SDS011;6134;59.284;18.022;2024-01-15T10:26:06;1.85;;;0.63;;
12141;SDS011;6134;59.284;18.022;2024-01-15T10:28:34;1.23;;;0.60;;
12141;SDS011;6134;59.284;18.022;2024-01-15T10:31:03;1.30;;;0.63;;
12141;SDS011;6134;59.284;18.022;2024-01-15T10:33:33;1.65;;;0.73;;
12141;SDS011;6134;59.284;18.022;2024-01-15T10:36:02;2.85;;;0.63;;
12141;SDS011;6134;59.284;18.022;2024-01-15T10:38:31;2.08;;;0.68;;
12141;SDS011;6134;59.284;18.022;2024-01-15T10:41:01;0.95;;;0.70;;
12141;SDS011;6134;59.284;18.022;2024-01-15T10:43:31;0.60;;;0.60;;
12141;SDS011;6134;59.284;18.022;2024-01-15T10:46:00;0.73;;;0.55;;
12141;SDS011;6134;59.284;18.022;2024-01-15T10:48:30;1.00;;;0.70;;
12141;SDS011;6134;59.284;18.022;2024-01-15T10:51:01;1.00;;;0.90;;
12141;SDS011;6134;59.284;18.022;2024-01-15T10:53:38;1.77;;;0.93;;
12141;SDS011;6134;59.284;18.022;2024-01-15T10:56:09;0.93;;;0.80;;
12141;SDS011;6134;59.284;18.022;2024-01-15T10:58:38;1.48;;;0.75;;
12141;SDS011;6134;59.284;18.022;2024-01-15T11:01:07;1.67;;;0.70;;
12141;SDS011;6134;59.284;18.022;2024-01-15T11:03:37;0.73;;;0.50;;
12141;SDS011;6134;59.284;18.022;2024-01-15T11:06:15;1.10;;;0.50;;
12141;SDS011;6134;59.284;18.022;2024-01-15T11:08:46;0.68;;;0.52;;
12141;SDS011;6134;59.284;18.022;2024-01-15T11:11:18;3.70;;;0.80;;
12141;SDS011;6134;59.284;18.022;2024-01-15T11:13:49;2.08;;;0.63;;
12141;SDS011;6134;59.284;18.022;2024-01-15T11:16:19;1.52;;;0.68;;
12141;SDS011;6134;59.284;18.022;2024-01-15T11:19:01;1.10;;;0.57;;
12141;SDS011;6134;59.284;18.022;2024-01-15T11:21:30;0.77;;;0.60;;
12141;SDS011;6134;59.284;18.022;2024-01-15T11:24:00;0.73;;;0.60;;
12141;SDS011;6134;59.284;18.022;2024-01-15T11:26:30;1.02;;;0.60;;
12141;SDS011;6134;59.284;18.022;2024-01-15T11:28:59;0.93;;;0.50;;
12141;SDS011;6134;59.284;18.022;2024-01-15T11:34:14;3.15;;;0.63;;
12141;SDS011;6134;59.284;18.022;2024-01-15T11:37:01;0.70;;;0.60;;
12141;SDS011;6134;59.284;18.022;2024-01-15T11:39:40;0.60;;;0.50;;
12141;SDS011;6134;59.284;18.022;2024-01-15T11:42:14;0.50;;;0.50;;
12141;SDS011;6134;59.284;18.022;2024-01-15T11:44:45;0.90;;;0.60;;
12141;SDS011;6134;59.284;18.022;2024-01-15T11:47:16;0.50;;;0.50;;
12141;SDS011;6134;59.284;18.022;2024-01-15T11:50:00;0.98;;;0.65;;
12141;SDS011;6134;59.284;18.022;2024-01-15T11:52:31;1.33;;;0.90;;
12141;SDS011;6134;59.284;18.022;2024-01-15T11:55:02;1.70;;;0.52;;
12141;SDS011;6134;59.284;18.022;2024-01-15T11:57:36;2.63;;;0.68;;
12141;SDS011;6134;59.284;18.022;2024-01-15T12:00:07;1.00;;;0.73;;
12141;SDS011;6134;59.284;18.022;2024-01-15T12:02:39;1.10;;;0.70;;
12141;SDS011;6134;59.284;18.022;2024-01-15T12:05:09;3.42;;;0.63;;
12141;SDS011;6134;59.284;18.022;2024-01-15T12:07:40;1.20;;;0.60;;
12141;SDS011;6134;59.284;18.022;2024-01-15T12:10:09;0.63;;;0.60;;
12141;SDS011;6134;59.284;18.022;2024-01-15T12:12:58;4.32;;;1.23;;
12141;SDS011;6134;59.284;18.022;2024-01-15T12:15:27;2.17;;;0.98;;
12141;SDS011;6134;59.284;18.022;2024-01-15T12:17:57;0.77;;;0.60;;
12141;SDS011;6134;59.284;18.022;2024-01-15T12:20:26;2.92;;;0.60;;
12141;SDS011;6134;59.284;18.022;2024-01-15T12:22:55;2.10;;;0.85;;
12141;SDS011;6134;59.284;18.022;2024-01-15T12:25:29;0.60;;;0.60;;
12141;SDS011;6134;59.284;18.022;2024-01-15T12:28:00;2.65;;;0.82;;
12141;SDS011;6134;59.284;18.022;2024-01-15T12:30:29;0.80;;;0.70;;
12141;SDS011;6134;59.284;18.022;2024-01-15T12:33:00;0.95;;;0.57;;
12141;SDS011;6134;59.284;18.022;2024-01-15T12:35:30;0.82;;;0.70;;
12141;SDS011;6134;59.284;18.022;2024-01-15T12:37:59;0.50;;;0.50;;
12141;SDS011;6134;59.284;18.022;2024-01-15T12:40:30;1.88;;;0.70;;
12141;SDS011;6134;59.284;18.022;2024-01-15T12:43:01;1.80;;;0.80;;
12141;SDS011;6134;59.284;18.022;2024-01-15T12:45:30;3.00;;;0.80;;
12141;SDS011;6134;59.284;18.022;2024-01-15T12:47:59;1.52;;;0.80;;
12141;SDS011;6134;59.284;18.022;2024-01-15T12:50:30;0.47;;;0.47;;
12141;SDS011;6134;59.284;18.022;2024-01-15T12:52:59;1.77;;;0.73;;
12141;SDS011;6134;59.284;18.022;2024-01-15T12:55:27;3.63;;;0.60;;
12141;SDS011;6134;59.284;18.022;2024-01-15T12:57:56;0.60;;;0.60;;
12141;SDS011;6134;59.284;18.022;2024-01-15T13:00:26;1.73;;;0.70;;
12141;SDS011;6134;59.284;18.022;2024-01-15T13:02:56;0.80;;;0.60;;
12141;SDS011;6134;59.284;18.022;2024-01-15T13:05:28;1.05;;;0.77;;
12141;SDS011;6134;59.284;18.022;2024-01-15T13:07:59;3.20;;;1.23;;
12141;SDS011;6134;59.284;18.022;2024-01-15T13:10:27;1.35;;;0.65;;
12141;SDS011;6134;59.284;18.022;2024-01-15T13:12:56;2.53;;;0.90;;
12141;SDS011;6134;59.284;18.022;2024-01-15T13:15:27;0.60;;;0.60;;
12141;SDS011;6134;59.284;18.022;2024-01-15T13:17:55;3.00;;;1.02;;
12141;SDS011;6134;59.284;18.022;2024-01-15T13:20:24;1.15;;;0.55;;
12141;SDS011;6134;59.284;18.022;2024-01-15T13:22:54;1.58;;;0.60;;
12141;SDS011;6134;59.284;18.022;2024-01-15T13:25:23;2.65;;;1.00;;
12141;SDS011;6134;59.284;18.022;2024-01-15T13:27:52;3.03;;;0.70;;
12141;SDS011;6134;59.284;18.022;2024-01-15T13:30:21;1.05;;;0.73;;
12141;SDS011;6134;59.284;18.022;2024-01-15T13:32:51;2.00;;;0.80;;
12141;SDS011;6134;59.284;18.022;2024-01-15T13:35:21;2.33;;;0.80;;
12141;SDS011;6134;59.284;18.022;2024-01-15T13:37:49;1.60;;;0.85;;
12141;SDS011;6134;59.284;18.022;2024-01-15T13:40:20;1.38;;;0.80;;
12141;SDS011;6134;59.284;18.022;2024-01-15T13:42:49;1.13;;;0.70;;
12141;SDS011;6134;59.284;18.022;2024-01-15T13:45:19;1.48;;;0.93;;
12141;SDS011;6134;59.284;18.022;2024-01-15T13:47:51;0.90;;;0.65;;
12141;SDS011;6134;59.284;18.022;2024-01-15T13:50:20;2.20;;;0.68;;
12141;SDS011;6134;59.284;18.022;2024-01-15T13:52:51;3.03;;;0.80;;
12141;SDS011;6134;59.284;18.022;2024-01-15T13:55:20;2.80;;;0.77;;
12141;SDS011;6134;59.284;18.022;2024-01-15T13:57:49;2.58;;;0.70;;
12141;SDS011;6134;59.284;18.022;2024-01-15T14:00:18;0.60;;;0.60;;
12141;SDS011;6134;59.284;18.022;2024-01-15T14:02:47;1.45;;;0.80;;
12141;SDS011;6134;59.284;18.022;2024-01-15T14:05:17;0.50;;;0.50;;
12141;SDS011;6134;59.284;18.022;2024-01-15T14:07:47;0.50;;;0.50;;
12141;SDS011;6134;59.284;18.022;2024-01-15T14:10:16;2.25;;;0.73;;
12141;SDS011;6134;59.284;18.022;2024-01-15T14:12:45;1.63;;;0.70;;
12141;SDS011;6134;59.284;18.022;2024-01-15T14:15:13;3.20;;;0.93;;
12141;SDS011;6134;59.284;18.022;2024-01-15T14:17:42;2.20;;;0.95;;
12141;SDS011;6134;59.284;18.022;2024-01-15T14:20:11;1.42;;;0.70;;
12141;SDS011;6134;59.284;18.022;2024-01-15T14:22:42;1.63;;;0.63;;
12141;SDS011;6134;59.284;18.022;2024-01-15T14:25:11;1.20;;;0.68;;
12141;SDS011;6134;59.284;18.022;2024-01-15T14:27:40;0.80;;;0.70;;
12141;SDS011;6134;59.284;18.022;2024-01-15T14:30:09;2.88;;;1.00;;
12141;SDS011;6134;59.284;18.022;2024-01-15T14:32:40;1.50;;;0.63;;
12141;SDS011;6134;59.284;18.022;2024-01-15T14:35:09;1.85;;;0.65;;
12141;SDS011;6134;59.284;18.022;2024-01-15T14:37:39;0.77;;;0.63;;
12141;SDS011;6134;59.284;18.022;2024-01-15T14:40:10;1.00;;;0.70;;
12141;SDS011;6134;59.284;18.022;2024-01-15T14:42:41;0.65;;;0.60;;
12141;SDS011;6134;59.284;18.022;2024-01-15T14:45:11;5.82;;;0.90;;
12141;SDS011;6134;59.284;18.022;2024-01-15T14:47:40;2.88;;;0.88;;
12141;SDS011;6134;59.284;18.022;2024-01-15T14:50:11;1.17;;;0.60;;
12141;SDS011;6134;59.284;18.022;2024-01-15T14:52:40;2.15;;;0.70;;
12141;SDS011;6134;59.284;18.022;2024-01-15T14:55:12;1.52;;;0.80;;
12141;SDS011;6134;59.284;18.022;2024-01-15T14:57:41;3.10;;;0.70;;
12141;SDS011;6134;59.284;18.022;2024-01-15T15:00:10;0.90;;;0.80;;
12141;SDS011;6134;59.284;18.022;2024-01-15T15:02:40;0.70;;;0.70;;
12141;SDS011;6134;59.284;18.022;2024-01-15T15:05:09;1.00;;;0.77;;